Time;durP1;ratioP1;P1;durP2;ratioP2;P2;SDS_P1;SDS_P2;PMS_P1;PMS_P2;Temp;Humidity;BMP_temperature;BMP_pressure;BME280_temperature;BME280_humidity;BME280_pressure;Samples;Min_cycle;Max_cycle;Signal;HPM_P1;HPM_P2
2023/07/04 00:01:54;;;;;;;1.83;1.65;;;13.70;99.90;;;;;;5018424;28;20243;-66
2023/07/04 00:04:22;;;;;;;3.65;1.48;;;13.80;99.90;;;;;;5045779;28;20709;-66
2023/07/04 00:06:51;;;;;;;2.38;1.35;;;13.80;99.90;;;;;;5055664;28;20515;-66
2023/07/04 00:09:18;;;;;;;6.60;1.58;;;13.80;99.90;;;;;;5059135;28;20625;-66
2023/07/04 00:11:45;;;;;;;3.30;1.52;;;13.70;99.90;;;;;;5045618;28;20384;-66
2023/07/04 00:14:12;;;;;;;7.10;2.25;;;13.70;99.90;;;;;;5045290;28;20464;-66
2023/07/04 00:16:39;;;;;;;1.75;1.38;;;13.70;99.90;;;;;;5042737;28;20215;-66
2023/07/04 00:19:06;;;;;;;2.83;1.45;;;13.70;99.90;;;;;;5031659;28;20212;-66
2023/07/04 00:21:33;;;;;;;2.58;1.65;;;13.60;99.90;;;;;;5039907;28;20200;-65
2023/07/04 00:24:02;;;;;;;4.43;1.45;;;13.60;99.90;;;;;;5055335;28;20948;-66
2023/07/04 00:26:29;;;;;;;2.25;1.27;;;13.60;99.90;;;;;;5056007;28;20236;-66
2023/07/04 00:28:57;;;;;;;2.90;1.42;;;13.60;99.90;;;;;;5056123;28;20688;-65
2023/07/04 00:31:25;;;;;;;4.47;1.40;;;13.60;99.90;;;;;;5035859;28;20569;-66
2023/07/04 00:33:53;;;;;;;5.10;1.65;;;13.50;99.90;;;;;;5029349;28;20416;-66
2023/07/04 00:36:20;;;;;;;2.10;1.17;;;13.50;99.90;;;;;;5044058;28;20204;-66
2023/07/04 00:38:51;;;;;;;5.32;1.30;;;13.50;99.90;;;;;;5051580;28;20208;-66
2023/07/04 00:41:21;;;;;;;2.33;1.30;;;13.50;99.90;;;;;;5058945;28;20692;-66
2023/07/04 00:43:57;;;;;;;3.60;1.52;;;13.50;99.90;;;;;;5061280;28;20603;-66
2023/07/04 00:46:36;;;;;;;4.63;1.50;;;13.50;99.90;;;;;;5040204;28;20589;-66
2023/07/04 00:49:06;;;;;;;3.08;1.40;;;13.40;99.90;;;;;;5036647;28;20653;-66
2023/07/04 00:51:34;;;;;;;4.30;1.52;;;13.40;99.90;;;;;;5047051;28;20208;-65
2023/07/04 00:54:02;;;;;;;3.10;1.65;;;13.40;99.90;;;;;;5056147;28;20196;-66
2023/07/04 00:56:31;;;;;;;3.90;1.45;;;13.40;99.90;;;;;;5054264;28;20608;-66
2023/07/04 00:58:59;;;;;;;4.78;1.67;;;13.30;99.90;;;;;;5052365;28;20295;-66
2023/07/04 01:01:26;;;;;;;3.55;1.58;;;13.30;99.90;;;;;;5048299;28;20204;-66
2023/07/04 01:03:54;;;;;;;3.25;1.70;;;13.40;99.90;;;;;;5054073;28;20201;-65
2023/07/04 01:06:25;;;;;;;3.00;1.23;;;13.30;99.90;;;;;;5019242;28;20204;-66
2023/07/04 01:08:56;;;;;;;4.63;1.52;;;13.30;99.90;;;;;;5051640;28;20740;-66
2023/07/04 01:11:29;;;;;;;4.90;1.48;;;13.30;99.90;;;;;;5054359;28;20941;-66
2023/07/04 01:13:57;;;;;;;2.22;1.42;;;13.30;99.90;;;;;;5052939;28;20230;-66
2023/07/04 01:16:25;;;;;;;3.30;1.77;;;13.30;99.90;;;;;;5052892;28;20208;-66
2023/07/04 01:18:54;;;;;;;7.95;2.00;;;13.30;99.90;;;;;;5043337;28;20226;-66
2023/07/04 01:21:23;;;;;;;4.38;1.65;;;13.30;99.90;;;;;;5029864;28;20204;-66
2023/07/04 01:23:58;;;;;;;3.38;1.60;;;13.30;99.90;;;;;;5029842;28;20220;-66
2023/07/04 01:26:31;;;;;;;4.50;1.75;;;13.30;99.90;;;;;;5048259;28;20208;-66
2023/07/04 01:28:58;;;;;;;1.98;1.23;;;13.20;99.90;;;;;;5053267;28;20581;-66
2023/07/04 01:31:27;;;;;;;4.45;1.70;;;13.30;99.90;;;;;;5050811;28;20228;-66
2023/07/04 01:33:55;;;;;;;3.80;1.52;;;13.30;99.90;;;;;;5040371;28;20205;-66
2023/07/04 01:36:25;;;;;;;3.78;2.17;;;13.30;99.90;;;;;;5031991;28;21149;-66
2023/07/04 01:38:52;;;;;;;3.22;1.85;;;13.40;99.90;;;;;;5034328;28;20252;-66
2023/07/04 01:41:21;;;;;;;3.22;1.45;;;13.30;99.90;;;;;;5053560;28;20835;-66
2023/07/04 01:43:57;;;;;;;5.90;1.85;;;13.40;99.90;;;;;;5057700;28;20232;-66
2023/07/04 01:46:24;;;;;;;6.63;2.30;;;13.30;99.90;;;;;;5053237;28;20227;-66
2023/07/04 01:48:51;;;;;;;4.65;1.60;;;13.40;99.90;;;;;;5050287;28;20234;-66
2023/07/04 01:51:23;;;;;;;4.18;1.80;;;13.30;99.90;;;;;;5033517;28;20355;-66
2023/07/04 01:53:50;;;;;;;4.78;1.88;;;13.30;99.90;;;;;;5043210;28;20286;-66
2023/07/04 01:56:17;;;;;;;5.00;1.98;;;13.40;99.90;;;;;;5048507;28;20212;-66
2023/07/04 01:58:44;;;;;;;5.40;1.83;;;13.40;99.90;;;;;;5057496;28;20600;-66
2023/07/04 02:01:12;;;;;;;5.22;2.33;;;13.40;99.90;;;;;;5055823;28;20200;-66
2023/07/04 02:03:39;;;;;;;9.73;2.40;;;13.40;99.90;;;;;;5058314;28;20196;-66
2023/07/04 02:06:07;;;;;;;8.18;2.10;;;13.30;99.90;;;;;;5017454;28;20235;-66
2023/07/04 02:08:34;;;;;;;8.88;1.83;;;13.40;99.90;;;;;;5045268;28;20208;-66
2023/07/04 02:11:02;;;;;;;5.40;2.17;;;13.40;99.90;;;;;;5042619;28;20533;-66
2023/07/04 02:13:29;;;;;;;5.00;2.08;;;13.40;99.90;;;;;;5057165;28;20206;-66
2023/07/04 02:15:55;;;;;;;4.32;2.35;;;13.40;99.90;;;;;;5054027;28;20205;-66
2023/07/04 02:18:25;;;;;;;3.22;2.10;;;13.40;99.90;;;;;;5051936;28;22850;-66
2023/07/04 02:20:53;;;;;;;6.25;2.00;;;13.40;99.90;;;;;;5040446;28;20208;-66
2023/07/04 02:23:20;;;;;;;5.80;2.17;;;13.40;99.90;;;;;;5019004;28;20235;-65
2023/07/04 02:25:48;;;;;;;6.18;2.95;;;13.30;99.90;;;;;;5042402;28;20235;-66
2023/07/04 02:28:16;;;;;;;4.32;2.50;;;13.30;99.90;;;;;;5055559;28;20197;-66
2023/07/04 02:30:52;;;;;;;8.60;2.53;;;13.30;99.90;;;;;;5059522;28;20228;-66
2023/07/04 02:33:19;;;;;;;7.30;2.50;;;13.40;99.90;;;;;;5048399;28;20408;-66
2023/07/04 02:35:48;;;;;;;5.25;2.10;;;13.40;99.90;;;;;;5042446;28;20199;-66
2023/07/04 02:38:15;;;;;;;7.22;2.20;;;13.30;99.90;;;;;;5029258;28;20328;-66
2023/07/04 02:40:44;;;;;;;4.47;2.33;;;13.30;99.90;;;;;;5048162;28;20204;-66
2023/07/04 02:43:10;;;;;;;6.15;2.13;;;13.30;99.90;;;;;;5050514;28;20522;-66
2023/07/04 02:45:37;;;;;;;5.25;2.42;;;13.40;99.90;;;;;;5056971;28;20211;-66
2023/07/04 02:48:04;;;;;;;6.38;2.33;;;13.30;99.90;;;;;;5044145;28;20775;-66
2023/07/04 02:50:31;;;;;;;6.03;2.10;;;13.40;99.90;;;;;;5049289;28;20223;-66
2023/07/04 02:52:59;;;;;;;10.38;3.30;;;13.40;99.90;;;;;;5045433;28;20211;-66
2023/07/04 02:55:26;;;;;;;4.70;2.47;;;13.40;99.90;;;;;;5037986;28;20208;-66
2023/07/04 02:57:53;;;;;;;7.07;2.50;;;13.40;99.90;;;;;;5053111;28;20204;-66
2023/07/04 03:00:20;;;;;;;9.68;2.80;;;13.50;99.90;;;;;;5047794;28;20569;-66
2023/07/04 03:02:47;;;;;;;6.72;2.42;;;13.40;99.90;;;;;;5042272;28;20291;-66
2023/07/04 03:05:14;;;;;;;6.25;2.75;;;13.40;99.90;;;;;;5051777;28;20335;-66
2023/07/04 03:07:40;;;;;;;8.50;2.42;;;13.40;99.90;;;;;;5038132;28;20196;-66
2023/07/04 03:10:09;;;;;;;7.38;2.65;;;13.50;99.90;;;;;;5009787;28;20354;-66
2023/07/04 03:12:36;;;;;;;5.25;2.92;;;13.50;99.90;;;;;;5054779;28;20580;-66
2023/07/04 03:15:03;;;;;;;13.10;2.53;;;13.40;99.90;;;;;;5045432;28;20219;-66
2023/07/04 03:17:30;;;;;;;5.75;2.55;;;13.40;99.90;;;;;;5044386;28;20278;-66
2023/07/04 03:19:56;;;;;;;6.30;2.20;;;13.50;99.90;;;;;;5047070;28;20200;-66
2023/07/04 03:22:23;;;;;;;4.13;2.45;;;13.50;99.90;;;;;;5044142;28;20773;-66
2023/07/04 03:24:50;;;;;;;8.82;2.95;;;13.50;99.90;;;;;;5026586;28;20232;-66
2023/07/04 03:27:18;;;;;;;8.20;2.53;;;13.50;99.90;;;;;;5043896;28;20235;-66
2023/07/04 03:29:45;;;;;;;3.92;2.15;;;13.50;99.90;;;;;;5061973;28;20204;-66
2023/07/04 03:32:11;;;;;;;10.40;2.50;;;13.50;99.90;;;;;;5051343;28;20754;-66
2023/07/04 03:34:38;;;;;;;6.97;2.90;;;13.50;99.90;;;;;;5038778;28;20205;-66
2023/07/04 03:37:05;;;;;;;5.65;2.00;;;13.50;99.90;;;;;;5048167;28;20211;-66
2023/07/04 03:39:32;;;;;;;7.88;2.58;;;13.50;99.90;;;;;;5030585;28;20209;-66
2023/07/04 03:41:59;;;;;;;6.20;2.80;;;13.50;99.90;;;;;;5029697;28;20227;-66
2023/07/04 03:44:27;;;;;;;7.43;4.00;;;13.60;99.90;;;;;;5052236;28;20199;-66
2023/07/04 03:46:54;;;;;;;6.82;4.18;;;13.50;99.90;;;;;;5046734;28;20709;-66
2023/07/04 03:49:20;;;;;;;12.80;5.53;;;14.90;99.90;;;;;;5043655;28;20609;-66
2023/07/04 03:51:47;;;;;;;9.30;4.18;;;13.60;99.90;;;;;;5052394;28;20220;-66
2023/07/04 03:54:14;;;;;;;7.55;3.88;;;13.60;99.90;;;;;;5037865;28;20488;-66
2023/07/04 03:56:41;;;;;;;6.70;3.40;;;13.70;99.90;;;;;;5035688;28;20215;-66
2023/07/04 03:59:07;;;;;;;10.35;3.88;;;13.60;99.90;;;;;;5056904;28;20197;-66
2023/07/04 04:01:35;;;;;;;9.13;3.42;;;13.70;99.90;;;;;;5056165;28;20204;-66
2023/07/04 04:04:02;;;;;;;7.65;3.63;;;13.70;99.90;;;;;;5041035;28;20302;-66
2023/07/04 04:06:29;;;;;;;6.30;3.10;;;13.70;99.90;;;;;;5053270;28;20491;-66
2023/07/04 04:08:56;;;;;;;6.78;3.45;;;13.70;99.90;;;;;;5041321;28;20525;-66
2023/07/04 04:11:23;;;;;;;6.22;2.97;;;13.70;99.90;;;;;;5032140;28;20311;-66
2023/07/04 04:13:49;;;;;;;8.88;2.97;;;13.70;99.90;;;;;;5056902;28;20219;-66
2023/07/04 04:16:16;;;;;;;7.57;3.22;;;13.70;99.90;;;;;;5055198;28;21336;-66
2023/07/04 04:18:45;;;;;;;6.38;3.10;;;13.70;99.90;;;;;;5053756;28;20614;-66
2023/07/04 04:21:12;;;;;;;6.70;2.97;;;13.70;99.90;;;;;;5046653;28;20502;-66
2023/07/04 04:23:39;;;;;;;9.18;2.60;;;13.80;99.90;;;;;;5051225;28;20225;-66
2023/07/04 04:26:06;;;;;;;7.75;3.03;;;13.80;99.90;;;;;;5046686;28;20409;-66
2023/07/04 04:28:33;;;;;;;6.82;2.65;;;13.80;99.90;;;;;;5038936;28;20207;-66
2023/07/04 04:31:00;;;;;;;8.80;3.05;;;13.80;99.90;;;;;;5054394;28;20228;-66
2023/07/04 04:33:26;;;;;;;7.03;3.30;;;13.90;99.90;;;;;;5060342;28;20200;-66
2023/07/04 04:35:54;;;;;;;7.22;3.30;;;13.90;99.90;;;;;;5039659;28;20665;-66
2023/07/04 04:38:21;;;;;;;10.07;3.78;;;14.10;99.90;;;;;;5057475;28;20315;-66
2023/07/04 04:40:48;;;;;;;9.10;3.45;;;13.90;99.90;;;;;;5048545;28;20203;-66
2023/07/04 04:43:15;;;;;;;4.95;3.13;;;13.90;99.90;;;;;;4992224;28;20235;-66
2023/07/04 04:45:43;;;;;;;6.07;3.00;;;13.90;99.90;;;;;;5048552;28;20207;-66
2023/07/04 04:48:10;;;;;;;8.93;3.95;;;13.90;99.90;;;;;;5044510;28;20551;-66
2023/07/04 04:50:37;;;;;;;6.22;3.38;;;13.90;99.90;;;;;;5038401;28;20239;-66
2023/07/04 04:53:05;;;;;;;6.60;3.25;;;13.90;99.90;;;;;;5057530;28;20662;-66
2023/07/04 04:55:32;;;;;;;6.75;3.35;;;14.10;99.90;;;;;;5048562;28;20199;-66
2023/07/04 04:57:58;;;;;;;8.98;3.13;;;14.00;99.90;;;;;;5018166;28;20328;-66
2023/07/04 05:00:25;;;;;;;10.93;2.78;;;14.00;99.90;;;;;;5049269;28;20302;-66
2023/07/04 05:02:54;;;;;;;8.55;3.30;;;14.10;99.90;;;;;;5050623;28;20602;-66
2023/07/04 05:05:21;;;;;;;5.40;3.17;;;14.10;99.90;;;;;;5033851;28;20871;-66
2023/07/04 05:07:50;;;;;;;11.00;4.07;;;14.10;99.90;;;;;;5029145;28;20876;-66
2023/07/04 05:10:18;;;;;;;9.65;3.95;;;14.00;99.90;;;;;;5048471;28;20211;-66
2023/07/04 05:12:45;;;;;;;7.72;3.20;;;14.10;99.90;;;;;;5039718;28;20428;-66
2023/07/04 05:15:12;;;;;;;3.65;2.70;;;14.10;99.90;;;;;;5028497;28;20216;-66
2023/07/04 05:17:39;;;;;;;8.77;3.63;;;14.10;99.90;;;;;;5041894;28;20196;-67
2023/07/04 05:20:08;;;;;;;11.63;3.85;;;14.20;99.90;;;;;;5045398;28;20208;-66
2023/07/04 05:22:35;;;;;;;6.68;2.95;;;14.10;99.90;;;;;;5038778;28;20196;-66
2023/07/04 05:25:02;;;;;;;7.55;3.17;;;14.10;99.90;;;;;;5021500;28;20953;-66
2023/07/04 05:27:30;;;;;;;6.82;3.25;;;14.10;99.90;;;;;;5035245;28;20208;-66
2023/07/04 05:29:57;;;;;;;9.98;3.30;;;14.20;99.90;;;;;;5025155;28;20209;-66
2023/07/04 05:32:24;;;;;;;6.45;3.17;;;14.10;99.90;;;;;;5035767;28;20224;-66
2023/07/04 05:34:51;;;;;;;7.80;3.47;;;14.20;99.90;;;;;;5051513;28;20403;-65
2023/07/04 05:37:17;;;;;;;6.60;2.75;;;14.30;99.90;;;;;;5036982;28;20247;-66
2023/07/04 05:39:46;;;;;;;8.48;2.53;;;14.30;99.90;;;;;;5031807;28;20327;-66
2023/07/04 05:42:12;;;;;;;5.22;2.40;;;14.30;99.90;;;;;;5025910;28;20787;-66
2023/07/04 05:44:40;;;;;;;12.35;3.10;;;14.40;99.90;;;;;;5035227;28;20216;-66
2023/07/04 05:47:07;;;;;;;7.95;3.03;;;14.40;99.90;;;;;;5029897;28;20403;-65
2023/07/04 05:49:34;;;;;;;7.30;2.80;;;14.40;99.90;;;;;;5053275;28;20200;-66
2023/07/04 05:52:01;;;;;;;5.32;2.80;;;14.40;99.90;;;;;;5040558;28;20788;-66
2023/07/04 05:54:28;;;;;;;6.85;2.60;;;14.40;99.90;;;;;;5042627;28;20207;-66
2023/07/04 05:56:56;;;;;;;8.23;2.72;;;14.40;99.90;;;;;;5059617;28;20201;-66
2023/07/04 05:59:23;;;;;;;6.68;2.80;;;14.40;99.90;;;;;;5017301;28;20817;-67
2023/07/04 06:01:52;;;;;;;4.32;2.47;;;14.40;99.90;;;;;;5041068;28;20215;-66
2023/07/04 06:04:18;;;;;;;8.68;2.78;;;14.40;99.90;;;;;;5054994;28;20859;-66
2023/07/04 06:06:51;;;;;;;4.45;2.35;;;14.40;99.90;;;;;;5049363;28;20199;-66
2023/07/04 06:09:18;;;;;;;8.68;2.72;;;14.50;99.90;;;;;;5042942;28;20338;-67
2023/07/04 06:11:46;;;;;;;5.95;3.08;;;14.50;99.90;;;;;;5056974;28;20220;-66
2023/07/04 06:14:17;;;;;;;7.60;2.53;;;14.60;99.90;;;;;;5021411;28;20204;-66
2023/07/04 06:16:44;;;;;;;6.70;2.60;;;14.60;99.90;;;;;;5045287;28;20209;-66
2023/07/04 06:19:12;;;;;;;7.53;2.33;;;14.70;99.90;;;;;;5058559;28;20189;-66
2023/07/04 06:21:39;;;;;;;8.10;2.17;;;14.70;99.90;;;;;;5062833;28;20218;-66
2023/07/04 06:24:06;;;;;;;9.13;3.05;;;14.70;99.90;;;;;;5038486;28;20892;-66
2023/07/04 06:26:33;;;;;;;5.55;2.92;;;14.70;99.90;;;;;;5050255;28;20669;-66
2023/07/04 06:29:01;;;;;;;8.90;2.70;;;14.80;99.90;;;;;;5022352;28;20193;-66
2023/07/04 06:31:28;;;;;;;4.93;2.78;;;14.80;99.90;;;;;;5020220;28;20238;-66
2023/07/04 06:33:55;;;;;;;4.00;2.70;;;14.80;99.90;;;;;;5026873;28;20209;-66
2023/07/04 06:36:24;;;;;;;8.73;2.60;;;14.80;99.90;;;;;;5039258;28;20207;-66
2023/07/04 06:38:51;;;;;;;9.90;2.97;;;14.90;99.90;;;;;;5035396;28;20220;-66
2023/07/04 06:41:18;;;;;;;6.40;2.45;;;14.90;99.90;;;;;;5042392;28;20231;-66
2023/07/04 06:43:46;;;;;;;8.43;2.90;;;14.90;99.90;;;;;;5037506;28;20220;-66
2023/07/04 06:46:16;;;;;;;11.05;2.95;;;15.00;99.90;;;;;;5014855;28;20212;-66
2023/07/04 06:48:43;;;;;;;5.68;2.75;;;15.00;99.90;;;;;;5032567;28;20667;-66
2023/07/04 06:51:12;;;;;;;8.60;2.70;;;15.00;99.90;;;;;;5053561;28;20655;-66
2023/07/04 06:53:41;;;;;;;6.28;2.80;;;15.00;99.90;;;;;;5031980;28;20211;-67
2023/07/04 06:56:10;;;;;;;8.70;2.80;;;15.00;99.90;;;;;;5035337;28;20980;-66
2023/07/04 06:58:41;;;;;;;8.45;2.65;;;15.00;99.90;;;;;;5054324;28;20373;-67
2023/07/04 07:01:08;;;;;;;8.77;2.78;;;15.00;99.90;;;;;;5035492;28;20215;-67
2023/07/04 07:03:36;;;;;;;5.18;2.42;;;15.10;99.90;;;;;;5029399;28;20593;-66
2023/07/04 07:06:03;;;;;;;5.05;2.50;;;15.10;99.90;;;;;;5054281;28;20208;-67
2023/07/04 07:08:31;;;;;;;5.97;2.38;;;15.10;99.90;;;;;;5036668;28;20984;-67
2023/07/04 07:11:01;;;;;;;13.13;2.80;;;15.20;99.90;;;;;;5054404;28;20200;-67
2023/07/04 07:13:28;;;;;;;6.05;2.30;;;15.30;99.90;;;;;;5053904;28;20476;-67
2023/07/04 07:16:07;;;;;;;8.82;2.42;;;15.40;99.90;;;;;;5032062;28;20528;-67
2023/07/04 07:18:34;;;;;;;9.25;2.85;;;15.50;99.90;;;;;;5027545;28;20223;-66
2023/07/04 07:21:02;;;;;;;5.55;2.45;;;15.50;99.90;;;;;;5048073;28;20304;-67
2023/07/04 07:23:29;;;;;;;4.55;2.50;;;15.50;99.90;;;;;;5048919;28;20239;-66
2023/07/04 07:25:56;;;;;;;4.13;2.10;;;15.40;99.90;;;;;;5041822;28;20205;-67
2023/07/04 07:28:25;;;;;;;3.88;2.65;;;15.40;99.90;;;;;;5057542;28;20665;-67
2023/07/04 07:31:01;;;;;;;4.10;2.58;;;15.40;99.90;;;;;;5033299;28;20272;-67
2023/07/04 07:33:30;;;;;;;4.75;2.42;;;15.40;99.90;;;;;;5035682;28;20231;-66
2023/07/04 07:35:57;;;;;;;7.95;2.47;;;15.40;99.90;;;;;;5030712;28;20313;-67
2023/07/04 07:38:24;;;;;;;3.97;2.03;;;15.40;99.90;;;;;;5047137;28;20443;-67
2023/07/04 07:40:51;;;;;;;4.65;2.60;;;15.30;99.90;;;;;;5040756;28;20239;-67
2023/07/04 07:43:18;;;;;;;6.22;2.80;;;15.30;99.90;;;;;;5063187;28;20212;-67
2023/07/04 07:45:47;;;;;;;7.40;2.53;;;15.30;99.90;;;;;;5059187;28;20568;-66
2023/07/04 07:48:14;;;;;;;5.00;2.55;;;15.40;99.90;;;;;;5025202;28;20223;-67
2023/07/04 07:50:42;;;;;;;4.93;2.17;;;14.60;99.90;;;;;;5043194;28;20548;-67
2023/07/04 07:53:09;;;;;;;3.72;2.08;;;15.60;99.90;;;;;;5059476;28;20236;-67
2023/07/04 07:55:36;;;;;;;7.30;2.03;;;15.60;99.90;;;;;;5041446;28;20205;-66
2023/07/04 07:58:02;;;;;;;7.78;2.47;;;15.70;99.90;;;;;;5054075;28;20216;-67
2023/07/04 08:00:30;;;;;;;5.95;1.88;;;15.70;99.90;;;;;;5060497;28;20201;-67
2023/07/04 08:02:58;;;;;;;6.32;2.08;;;15.70;99.90;;;;;;5044198;28;21188;-67
2023/07/04 08:05:25;;;;;;;5.55;1.92;;;15.80;99.90;;;;;;5024453;28;22157;-67
2023/07/04 08:07:52;;;;;;;3.00;1.50;;;16.00;99.90;;;;;;5054713;28;20309;-66
2023/07/04 08:10:19;;;;;;;5.88;1.80;;;16.00;99.90;;;;;;5046077;28;20219;-66
2023/07/04 08:12:46;;;;;;;2.70;1.55;;;16.00;99.90;;;;;;5044086;28;20228;-67
2023/07/04 08:15:13;;;;;;;4.20;1.77;;;16.10;99.90;;;;;;5061240;28;20505;-66
2023/07/04 08:17:40;;;;;;;8.50;1.73;;;16.10;99.90;;;;;;5051229;28;20223;-67
2023/07/04 08:20:09;;;;;;;2.13;1.40;;;16.00;99.90;;;;;;5020877;28;20232;-67
2023/07/04 08:22:36;;;;;;;2.15;1.58;;;16.10;99.90;;;;;;5061146;28;20204;-66
2023/07/04 08:25:05;;;;;;;5.15;1.60;;;16.10;99.90;;;;;;5044773;28;20231;-66
2023/07/04 08:27:32;;;;;;;4.53;1.63;;;16.20;99.90;;;;;;5039957;28;20319;-66
2023/07/04 08:29:59;;;;;;;3.63;1.30;;;16.10;99.90;;;;;;5058533;28;20203;-66
2023/07/04 08:32:27;;;;;;;4.57;1.40;;;16.10;99.90;;;;;;5053427;28;20599;-66
2023/07/04 08:34:53;;;;;;;4.22;1.17;;;16.10;99.90;;;;;;5024158;28;20230;-66
2023/07/04 08:37:22;;;;;;;1.52;1.38;;;16.20;99.90;;;;;;5044557;28;20204;-66
2023/07/04 08:39:50;;;;;;;4.70;1.30;;;16.10;99.90;;;;;;5056602;28;20816;-66
2023/07/04 08:42:19;;;;;;;3.35;1.08;;;16.30;99.90;;;;;;5023160;28;20228;-67
2023/07/04 08:44:48;;;;;;;3.78;1.10;;;16.60;99.90;;;;;;5055695;28;20267;-66
2023/07/04 08:47:18;;;;;;;1.27;1.13;;;16.50;99.90;;;;;;5058001;28;20199;-65
2023/07/04 08:49:49;;;;;;;3.65;1.00;;;16.80;99.90;;;;;;5026771;28;20232;-66
2023/07/04 08:52:23;;;;;;;6.50;1.90;;;16.90;99.90;;;;;;5040164;28;20259;-66
2023/07/04 08:54:51;;;;;;;1.63;1.23;;;17.10;99.90;;;;;;5044932;28;20273;-66
2023/07/04 08:57:29;;;;;;;6.85;1.60;;;16.80;99.90;;;;;;5037214;28;20208;-66
2023/07/04 09:00:04;;;;;;;7.53;1.75;;;16.80;99.90;;;;;;5058458;28;20696;-66
2023/07/04 09:03:01;;;;;;;2.45;1.30;;;16.90;99.90;;;;;;5049470;28;20281;-66
2023/07/04 09:05:41;;;;;;;1.88;1.05;;;16.90;99.90;;;;;;5030378;28;20205;-66
2023/07/04 09:08:18;;;;;;;2.72;1.00;;;16.90;99.90;;;;;;5047753;28;20219;-66
2023/07/04 09:10:49;;;;;;;1.58;0.98;;;16.80;99.90;;;;;;5049576;28;20402;-66
2023/07/04 09:13:26;;;;;;;7.72;1.20;;;16.80;99.90;;;;;;5035063;28;20228;-66
2023/07/04 09:15:54;;;;;;;4.75;1.15;;;16.70;99.90;;;;;;5045897;28;20678;-65
2023/07/04 09:18:31;;;;;;;2.03;1.00;;;16.70;99.90;;;;;;5039160;28;20227;-66
2023/07/04 09:21:07;;;;;;;5.00;1.13;;;16.70;99.90;;;;;;5009966;28;20255;-66
2023/07/04 09:23:34;;;;;;;1.92;1.00;;;16.80;99.90;;;;;;5030609;28;20790;-66
2023/07/04 09:26:02;;;;;;;5.32;1.10;;;16.90;99.90;;;;;;5054371;28;20718;-66
2023/07/04 09:28:30;;;;;;;4.32;1.35;;;17.00;99.90;;;;;;5036805;28;20224;-66
2023/07/04 09:31:00;;;;;;;2.65;1.27;;;17.20;99.90;;;;;;5041287;28;20554;-66
2023/07/04 09:33:28;;;;;;;4.03;1.13;;;17.20;99.90;;;;;;5031347;28;20234;-66
2023/07/04 09:35:57;;;;;;;4.47;1.20;;;17.20;99.90;;;;;;5032489;28;20217;-65
2023/07/04 09:38:24;;;;;;;4.10;1.40;;;17.20;99.90;;;;;;5032273;28;20850;-65
2023/07/04 09:40:54;;;;;;;1.48;1.00;;;17.20;99.90;;;;;;5052056;28;20708;-66
2023/07/04 09:43:29;;;;;;;2.20;1.20;;;17.10;99.90;;;;;;5041212;28;20217;-65
2023/07/04 09:46:23;;;;;;;2.05;1.15;;;17.10;99.90;;;;;;5058587;28;20265;-66
2023/07/04 09:48:50;;;;;;;1.60;1.20;;;17.20;99.90;;;;;;5045247;28;20195;-66
2023/07/04 09:51:25;;;;;;;1.42;0.90;;;17.20;99.90;;;;;;5040618;28;20192;-65
2023/07/04 09:54:09;;;;;;;2.30;1.20;;;17.20;99.90;;;;;;5040011;28;20573;-65
2023/07/04 09:56:37;;;;;;;1.98;0.90;;;17.40;99.90;;;;;;5049631;28;21054;-66
2023/07/04 09:59:19;;;;;;;2.40;1.02;;;17.40;99.90;;;;;;5062069;28;20196;-66
2023/07/04 10:01:48;;;;;;;4.70;1.10;;;17.40;99.90;;;;;;5026810;28;24272;-66
2023/07/04 10:04:25;;;;;;;3.60;1.40;;;17.60;99.90;;;;;;5038464;28;20228;-65
2023/07/04 10:06:54;;;;;;;3.25;1.15;;;17.50;99.90;;;;;;5033764;28;20231;-65
2023/07/04 10:09:21;;;;;;;1.60;1.10;;;17.60;99.90;;;;;;5006061;28;20224;-66
2023/07/04 10:11:50;;;;;;;2.35;1.05;;;17.20;99.90;;;;;;5048368;28;20216;-66
2023/07/04 10:14:35;;;;;;;1.98;1.20;;;17.50;99.90;;;;;;5041270;28;20250;-66
2023/07/04 10:17:10;;;;;;;1.50;1.10;;;17.50;99.90;;;;;;5041471;28;20409;-66
2023/07/04 10:19:42;;;;;;;2.90;1.13;;;17.50;99.90;;;;;;5033789;28;20479;-65
2023/07/04 10:22:09;;;;;;;2.13;1.10;;;17.50;99.90;;;;;;5039588;28;20261;-66
2023/07/04 10:24:36;;;;;;;3.88;1.38;;;17.50;99.90;;;;;;5014493;28;20440;-66
2023/07/04 10:27:07;;;;;;;2.70;1.33;;;17.50;99.90;;;;;;5054772;28;20218;-66
2023/07/04 10:29:39;;;;;;;2.85;1.10;;;17.60;99.90;;;;;;5045578;28;20200;-66
2023/07/04 10:32:12;;;;;;;4.93;1.25;;;17.90;99.90;;;;;;5043572;28;20211;-65
2023/07/04 10:34:41;;;;;;;3.78;1.20;;;17.90;99.90;;;;;;5042947;28;20232;-65
2023/07/04 10:37:10;;;;;;;4.43;2.13;;;17.90;99.90;;;;;;5046178;28;20192;-66
2023/07/04 10:39:38;;;;;;;3.72;1.30;;;17.90;99.90;;;;;;5022604;28;20816;-65
2023/07/04 10:42:12;;;;;;;4.85;1.20;;;17.90;99.90;;;;;;5038572;28;20247;-66
2023/07/04 10:44:43;;;;;;;2.67;1.40;;;17.90;99.90;;;;;;5058011;28;20737;-66
2023/07/04 10:47:16;;;;;;;5.85;1.40;;;17.90;99.90;;;;;;5043789;28;20774;-65
2023/07/04 10:49:49;;;;;;;2.30;1.27;;;18.00;99.90;;;;;;5049977;28;20196;-66
2023/07/04 10:52:18;;;;;;;1.95;1.10;;;18.00;99.90;;;;;;5046989;28;20201;-65
2023/07/04 10:54:45;;;;;;;4.50;1.45;;;18.20;99.90;;;;;;5029347;28;20234;-65
2023/07/04 10:57:30;;;;;;;4.93;1.40;;;18.10;99.90;;;;;;5041784;28;20708;-65
2023/07/04 11:00:04;;;;;;;2.88;1.30;;;18.20;99.90;;;;;;5054501;28;20584;-65
2023/07/04 11:02:36;;;;;;;6.50;1.50;;;18.10;99.90;;;;;;5045679;28;20917;-65
2023/07/04 11:05:09;;;;;;;5.95;1.70;;;18.00;99.90;;;;;;5056893;28;20200;-65
2023/07/04 11:07:40;;;;;;;3.60;1.50;;;18.10;99.90;;;;;;5050350;28;20199;-65
2023/07/04 11:10:09;;;;;;;3.75;1.33;;;18.50;99.90;;;;;;5049398;28;20220;-66
2023/07/04 11:12:37;;;;;;;3.22;1.67;;;18.50;99.90;;;;;;5032383;28;20682;-65
2023/07/04 11:15:18;;;;;;;1.70;1.30;;;18.70;99.90;;;;;;5047440;28;20704;-66
2023/07/04 11:17:46;;;;;;;4.90;1.63;;;18.50;99.90;;;;;;5033837;28;20236;-65
2023/07/04 11:20:19;;;;;;;1.38;1.27;;;18.50;99.90;;;;;;5055308;28;20254;-65
2023/07/04 11:22:55;;;;;;;9.90;1.92;;;18.50;99.90;;;;;;5046735;28;20699;-65
2023/07/04 11:25:52;;;;;;;5.43;1.60;;;18.50;99.90;;;;;;5061294;28;20219;-65
2023/07/04 11:28:26;;;;;;;6.93;2.00;;;18.50;99.90;;;;;;5060845;28;20200;-65
2023/07/04 11:31:14;;;;;;;7.38;1.75;;;18.50;99.90;;;;;;5054121;28;20234;-65
2023/07/04 11:33:44;;;;;;;3.38;1.42;;;18.60;99.90;;;;;;5043123;28;20241;-65
2023/07/04 11:36:18;;;;;;;5.20;1.67;;;18.60;99.90;;;;;;5044882;28;20205;-65
2023/07/04 11:38:51;;;;;;;5.18;1.80;;;18.60;99.90;;;;;;5050953;28;20222;-65
2023/07/04 11:41:26;;;;;;;12.10;1.92;;;18.60;99.90;;;;;;5027852;28;20212;-65
2023/07/04 11:43:54;;;;;;;6.38;2.00;;;18.60;99.90;;;;;;5046235;28;20563;-66
2023/07/04 11:46:24;;;;;;;3.85;1.77;;;18.70;99.90;;;;;;5057627;28;20213;-65
2023/07/04 11:48:55;;;;;;;3.72;1.70;;;18.90;99.90;;;;;;5043154;28;20204;-66
2023/07/04 11:51:24;;;;;;;5.45;1.70;;;18.60;99.90;;;;;;5042255;28;20532;-65
2023/07/04 11:53:56;;;;;;;6.47;1.60;;;18.70;99.90;;;;;;5055681;28;20230;-65
2023/07/04 11:56:36;;;;;;;3.00;1.60;;;18.70;99.90;;;;;;5033036;28;20368;-65
2023/07/04 11:59:27;;;;;;;2.30;1.40;;;18.80;99.90;;;;;;5052520;28;20208;-65
2023/07/04 12:02:24;;;;;;;4.63;1.63;;;18.80;99.90;;;;;;5053997;28;20479;-65
2023/07/04 12:04:51;;;;;;;2.17;1.45;;;18.80;99.90;;;;;;5045583;28;20457;-64
2023/07/04 12:07:34;;;;;;;5.40;1.90;;;18.90;99.90;;;;;;5050434;28;20733;-65
2023/07/04 12:10:09;;;;;;;2.53;1.60;;;18.90;99.90;;;;;;5054669;28;20420;-64
2023/07/04 12:12:37;;;;;;;6.32;2.00;;;18.90;99.90;;;;;;5031753;28;20226;-65
2023/07/04 12:15:09;;;;;;;7.45;1.92;;;19.00;99.90;;;;;;5046527;28;20886;-64
2023/07/04 12:17:39;;;;;;;6.45;2.00;;;19.00;99.90;;;;;;5054279;28;20212;-65
2023/07/04 12:20:09;;;;;;;3.38;1.67;;;19.10;99.90;;;;;;5049595;28;20414;-65
2023/07/04 12:22:37;;;;;;;8.48;1.50;;;19.10;99.90;;;;;;5052176;28;20204;-64
2023/07/04 12:25:12;;;;;;;5.20;1.30;;;19.20;99.90;;;;;;5058728;28;20416;-64
2023/07/04 12:27:41;;;;;;;5.60;1.83;;;19.20;99.90;;;;;;5032669;28;20573;-65
2023/07/04 12:30:11;;;;;;;4.97;1.88;;;19.20;99.90;;;;;;5060750;28;20266;-65
2023/07/04 12:32:39;;;;;;;6.28;1.98;;;19.20;99.90;;;;;;5049697;28;20297;-65
2023/07/04 12:35:07;;;;;;;4.85;1.60;;;19.30;99.90;;;;;;5040525;28;20613;-64
2023/07/04 12:37:39;;;;;;;3.17;1.65;;;19.30;99.90;;;;;;5060013;28;21100;-64
2023/07/04 12:40:15;;;;;;;9.75;2.30;;;19.20;99.90;;;;;;5052608;28;20397;-64
2023/07/04 12:42:43;;;;;;;6.03;1.55;;;19.10;99.90;;;;;;5045557;28;20204;-64
2023/07/04 12:45:12;;;;;;;12.95;2.22;;;19.10;99.90;;;;;;5047220;28;20228;-64
2023/07/04 12:47:40;;;;;;;7.10;1.65;;;19.00;99.90;;;;;;5058562;28;20607;-64
2023/07/04 12:50:09;;;;;;;5.85;1.77;;;18.90;99.90;;;;;;5048232;28;20487;-64
2023/07/04 12:52:38;;;;;;;6.00;2.05;;;18.70;99.90;;;;;;5056242;28;20457;-64
2023/07/04 12:55:07;;;;;;;5.32;1.98;;;18.50;99.90;;;;;;5045443;28;20365;-65
2023/07/04 12:57:35;;;;;;;5.30;2.10;;;18.30;99.90;;;;;;5053337;28;20728;-64